sensor_id;sensor_type;location;lat;lon;timestamp;P1;durP1;ratioP1;P2;durP2;ratioP2
2622;SDS011;1321;48.690;9.022;2023-04-06T00:00:03;11.33;;;9.50;;
2622;SDS011;1321;48.690;9.022;2023-04-06T00:02:35;10.47;;;9.10;;
2622;SDS011;1321;48.690;9.022;2023-04-06T00:05:03;10.43;;;9.37;;
2622;SDS011;1321;48.690;9.022;2023-04-06T00:07:32;9.40;;;8.70;;
2622;SDS011;1321;48.690;9.022;2023-04-06T00:10:01;10.35;;;9.27;;
2622;SDS011;1321;48.690;9.022;2023-04-06T00:12:30;10.00;;;9.20;;
2622;SDS011;1321;48.690;9.022;2023-04-06T00:14:59;10.03;;;9.17;;
2622;SDS011;1321;48.690;9.022;2023-04-06T00:17:28;11.48;;;10.23;;
2622;SDS011;1321;48.690;9.022;2023-04-06T00:19:56;12.23;;;9.57;;
2622;SDS011;1321;48.690;9.022;2023-04-06T00:22:24;11.83;;;10.63;;
2622;SDS011;1321;48.690;9.022;2023-04-06T00:24:52;11.13;;;9.90;;
2622;SDS011;1321;48.690;9.022;2023-04-06T00:27:20;10.23;;;9.43;;
2622;SDS011;1321;48.690;9.022;2023-04-06T00:29:48;15.18;;;12.00;;
2622;SDS011;1321;48.690;9.022;2023-04-06T00:32:18;11.32;;;10.13;;
2622;SDS011;1321;48.690;9.022;2023-04-06T00:34:46;11.05;;;9.95;;
2622;SDS011;1321;48.690;9.022;2023-04-06T00:37:15;13.23;;;11.23;;
2622;SDS011;1321;48.690;9.022;2023-04-06T00:39:43;11.30;;;10.25;;
2622;SDS011;1321;48.690;9.022;2023-04-06T00:42:11;11.55;;;10.30;;
2622;SDS011;1321;48.690;9.022;2023-04-06T00:44:40;10.57;;;9.57;;
2622;SDS011;1321;48.690;9.022;2023-04-06T00:47:09;10.43;;;9.40;;
2622;SDS011;1321;48.690;9.022;2023-04-06T00:49:39;10.95;;;9.85;;
2622;SDS011;1321;48.690;9.022;2023-04-06T00:52:07;10.30;;;9.25;;
2622;SDS011;1321;48.690;9.022;2023-04-06T00:54:35;13.32;;;9.43;;
2622;SDS011;1321;48.690;9.022;2023-04-06T00:57:04;10.60;;;9.50;;
2622;SDS011;1321;48.690;9.022;2023-04-06T00:59:33;9.95;;;8.95;;
2622;SDS011;1321;48.690;9.022;2023-04-06T01:02:01;13.98;;;11.02;;
2622;SDS011;1321;48.690;9.022;2023-04-06T01:04:30;12.30;;;10.75;;
2622;SDS011;1321;48.690;9.022;2023-04-06T01:07:01;11.25;;;10.05;;
2622;SDS011;1321;48.690;9.022;2023-04-06T01:09:29;10.60;;;9.70;;
2622;SDS011;1321;48.690;9.022;2023-04-06T01:11:58;10.23;;;9.40;;
2622;SDS011;1321;48.690;9.022;2023-04-06T01:14:27;9.52;;;8.65;;
2622;SDS011;1321;48.690;9.022;2023-04-06T01:16:57;10.50;;;9.55;;
2622;SDS011;1321;48.690;9.022;2023-04-06T01:19:27;9.90;;;8.88;;
2622;SDS011;1321;48.690;9.022;2023-04-06T01:21:55;9.95;;;9.05;;
2622;SDS011;1321;48.690;9.022;2023-04-06T01:24:25;9.47;;;8.63;;
2622;SDS011;1321;48.690;9.022;2023-04-06T01:26:53;9.00;;;8.40;;
2622;SDS011;1321;48.690;9.022;2023-04-06T01:29:22;11.63;;;8.70;;
2622;SDS011;1321;48.690;9.022;2023-04-06T01:31:51;9.80;;;8.90;;
2622;SDS011;1321;48.690;9.022;2023-04-06T01:34:19;10.65;;;8.85;;
2622;SDS011;1321;48.690;9.022;2023-04-06T01:36:47;10.40;;;9.38;;
2622;SDS011;1321;48.690;9.022;2023-04-06T01:39:16;9.95;;;9.15;;
2622;SDS011;1321;48.690;9.022;2023-04-06T01:41:46;10.30;;;9.30;;
2622;SDS011;1321;48.690;9.022;2023-04-06T01:44:15;10.47;;;9.60;;
2622;SDS011;1321;48.690;9.022;2023-04-06T01:46:45;10.40;;;9.40;;
2622;SDS011;1321;48.690;9.022;2023-04-06T01:49:13;10.18;;;9.25;;
2622;SDS011;1321;48.690;9.022;2023-04-06T01:51:42;10.77;;;9.65;;
2622;SDS011;1321;48.690;9.022;2023-04-06T01:54:10;10.25;;;9.45;;
2622;SDS011;1321;48.690;9.022;2023-04-06T01:56:38;9.95;;;9.25;;
2622;SDS011;1321;48.690;9.022;2023-04-06T01:59:08;11.05;;;10.05;;
2622;SDS011;1321;48.690;9.022;2023-04-06T02:01:37;10.98;;;10.02;;
2622;SDS011;1321;48.690;9.022;2023-04-06T02:04:05;11.93;;;10.55;;
2622;SDS011;1321;48.690;9.022;2023-04-06T02:06:33;11.00;;;10.02;;
2622;SDS011;1321;48.690;9.022;2023-04-06T02:09:01;10.20;;;9.40;;
2622;SDS011;1321;48.690;9.022;2023-04-06T02:11:30;10.90;;;10.00;;
2622;SDS011;1321;48.690;9.022;2023-04-06T02:13:58;11.00;;;10.05;;
2622;SDS011;1321;48.690;9.022;2023-04-06T02:16:29;10.90;;;9.90;;
2622;SDS011;1321;48.690;9.022;2023-04-06T02:18:57;9.95;;;9.15;;
2622;SDS011;1321;48.690;9.022;2023-04-06T02:21:26;10.48;;;9.68;;
2622;SDS011;1321;48.690;9.022;2023-04-06T02:23:54;11.00;;;9.60;;
2622;SDS011;1321;48.690;9.022;2023-04-06T02:26:22;14.32;;;9.57;;
2622;SDS011;1321;48.690;9.022;2023-04-06T02:28:50;10.20;;;9.50;;
2622;SDS011;1321;48.690;9.022;2023-04-06T02:31:19;10.35;;;9.50;;
2622;SDS011;1321;48.690;9.022;2023-04-06T02:33:48;10.95;;;10.00;;
2622;SDS011;1321;48.690;9.022;2023-04-06T02:36:17;10.70;;;9.73;;
2622;SDS011;1321;48.690;9.022;2023-04-06T02:38:45;8.98;;;8.35;;
2622;SDS011;1321;48.690;9.022;2023-04-06T02:41:13;10.63;;;9.82;;
2622;SDS011;1321;48.690;9.022;2023-04-06T02:43:41;10.88;;;9.60;;
2622;SDS011;1321;48.690;9.022;2023-04-06T02:46:09;10.55;;;9.45;;
2622;SDS011;1321;48.690;9.022;2023-04-06T02:48:38;13.93;;;9.68;;
2622;SDS011;1321;48.690;9.022;2023-04-06T02:51:08;11.60;;;9.05;;
2622;SDS011;1321;48.690;9.022;2023-04-06T02:53:36;10.82;;;9.73;;
2622;SDS011;1321;48.690;9.022;2023-04-06T02:56:04;10.07;;;9.25;;
2622;SDS011;1321;48.690;9.022;2023-04-06T02:58:33;10.52;;;9.52;;
2622;SDS011;1321;48.690;9.022;2023-04-06T03:01:01;9.43;;;8.63;;
2622;SDS011;1321;48.690;9.022;2023-04-06T03:03:30;9.73;;;8.82;;
2622;SDS011;1321;48.690;9.022;2023-04-06T03:05:58;11.27;;;10.18;;
2622;SDS011;1321;48.690;9.022;2023-04-06T03:08:28;30.23;;;17.33;;
2622;SDS011;1321;48.690;9.022;2023-04-06T03:10:57;22.30;;;15.90;;
2622;SDS011;1321;48.690;9.022;2023-04-06T03:13:25;10.57;;;9.60;;
2622;SDS011;1321;48.690;9.022;2023-04-06T03:15:53;11.88;;;10.73;;
2622;SDS011;1321;48.690;9.022;2023-04-06T03:18:23;10.80;;;9.77;;
2622;SDS011;1321;48.690;9.022;2023-04-06T03:20:51;10.65;;;9.75;;
2622;SDS011;1321;48.690;9.022;2023-04-06T03:23:21;11.63;;;10.50;;
2622;SDS011;1321;48.690;9.022;2023-04-06T03:25:51;11.20;;;10.32;;
2622;SDS011;1321;48.690;9.022;2023-04-06T03:28:19;11.13;;;10.23;;
2622;SDS011;1321;48.690;9.022;2023-04-06T03:30:47;10.50;;;9.50;;
2622;SDS011;1321;48.690;9.022;2023-04-06T03:33:16;11.65;;;10.50;;
2622;SDS011;1321;48.690;9.022;2023-04-06T03:35:44;10.57;;;9.68;;
2622;SDS011;1321;48.690;9.022;2023-04-06T03:38:12;11.00;;;9.95;;
2622;SDS011;1321;48.690;9.022;2023-04-06T03:40:40;9.80;;;9.00;;
2622;SDS011;1321;48.690;9.022;2023-04-06T03:43:11;11.63;;;10.43;;
2622;SDS011;1321;48.690;9.022;2023-04-06T03:45:39;11.60;;;10.50;;
2622;SDS011;1321;48.690;9.022;2023-04-06T03:48:07;11.48;;;10.48;;
2622;SDS011;1321;48.690;9.022;2023-04-06T03:50:35;10.75;;;9.80;;
2622;SDS011;1321;48.690;9.022;2023-04-06T03:53:03;12.05;;;10.88;;
2622;SDS011;1321;48.690;9.022;2023-04-06T03:55:32;11.00;;;10.00;;
2622;SDS011;1321;48.690;9.022;2023-04-06T03:58:00;10.88;;;10.15;;
2622;SDS011;1321;48.690;9.022;2023-04-06T04:00:30;11.02;;;10.05;;
2622;SDS011;1321;48.690;9.022;2023-04-06T04:02:59;10.77;;;9.77;;
2622;SDS011;1321;48.690;9.022;2023-04-06T04:05:28;10.65;;;9.75;;
2622;SDS011;1321;48.690;9.022;2023-04-06T04:07:56;10.52;;;9.57;;
2622;SDS011;1321;48.690;9.022;2023-04-06T04:10:25;10.85;;;9.90;;
2622;SDS011;1321;48.690;9.022;2023-04-06T04:12:53;12.05;;;11.15;;
2622;SDS011;1321;48.690;9.022;2023-04-06T04:15:21;10.23;;;9.52;;
2622;SDS011;1321;48.690;9.022;2023-04-06T04:17:51;12.00;;;10.40;;
2622;SDS011;1321;48.690;9.022;2023-04-06T04:20:19;10.85;;;9.85;;
2622;SDS011;1321;48.690;9.022;2023-04-06T04:22:47;12.13;;;11.02;;
2622;SDS011;1321;48.690;9.022;2023-04-06T04:25:16;12.18;;;10.70;;
2622;SDS011;1321;48.690;9.022;2023-04-06T04:27:44;11.75;;;10.75;;
2622;SDS011;1321;48.690;9.022;2023-04-06T04:30:12;11.50;;;10.45;;
2622;SDS011;1321;48.690;9.022;2023-04-06T04:32:41;11.55;;;10.40;;
2622;SDS011;1321;48.690;9.022;2023-04-06T04:35:11;12.55;;;11.52;;
2622;SDS011;1321;48.690;9.022;2023-04-06T04:37:40;13.43;;;12.02;;
2622;SDS011;1321;48.690;9.022;2023-04-06T04:40:09;12.00;;;10.85;;
2622;SDS011;1321;48.690;9.022;2023-04-06T04:42:50;12.68;;;11.55;;
2622;SDS011;1321;48.690;9.022;2023-04-06T04:45:18;12.32;;;11.25;;
2622;SDS011;1321;48.690;9.022;2023-04-06T04:47:47;13.15;;;12.00;;
2622;SDS011;1321;48.690;9.022;2023-04-06T04:50:17;12.15;;;10.95;;
2622;SDS011;1321;48.690;9.022;2023-04-06T04:52:45;14.95;;;12.25;;
2622;SDS011;1321;48.690;9.022;2023-04-06T04:55:13;24.40;;;15.95;;
2622;SDS011;1321;48.690;9.022;2023-04-06T04:57:42;29.33;;;18.90;;
2622;SDS011;1321;48.690;9.022;2023-04-06T05:00:11;36.17;;;19.05;;
2622;SDS011;1321;48.690;9.022;2023-04-06T05:02:40;29.58;;;16.30;;
2622;SDS011;1321;48.690;9.022;2023-04-06T05:05:08;24.67;;;16.50;;
2622;SDS011;1321;48.690;9.022;2023-04-06T05:07:38;31.25;;;18.75;;
2622;SDS011;1321;48.690;9.022;2023-04-06T05:10:07;16.42;;;14.65;;
2622;SDS011;1321;48.690;9.022;2023-04-06T05:12:35;15.05;;;13.27;;
2622;SDS011;1321;48.690;9.022;2023-04-06T05:15:04;12.73;;;11.65;;
2622;SDS011;1321;48.690;9.022;2023-04-06T05:17:33;15.90;;;13.38;;
2622;SDS011;1321;48.690;9.022;2023-04-06T05:20:02;14.57;;;11.95;;
2622;SDS011;1321;48.690;9.022;2023-04-06T05:22:30;13.70;;;12.40;;
2622;SDS011;1321;48.690;9.022;2023-04-06T05:25:00;13.68;;;12.45;;
2622;SDS011;1321;48.690;9.022;2023-04-06T05:27:29;15.32;;;12.30;;
2622;SDS011;1321;48.690;9.022;2023-04-06T05:29:57;12.77;;;11.73;;
2622;SDS011;1321;48.690;9.022;2023-04-06T05:32:25;12.63;;;11.60;;
2622;SDS011;1321;48.690;9.022;2023-04-06T05:34:55;12.68;;;11.50;;
2622;SDS011;1321;48.690;9.022;2023-04-06T05:37:23;12.95;;;11.85;;
2622;SDS011;1321;48.690;9.022;2023-04-06T05:39:51;23.23;;;12.65;;
2622;SDS011;1321;48.690;9.022;2023-04-06T05:42:21;13.07;;;11.88;;
2622;SDS011;1321;48.690;9.022;2023-04-06T05:44:50;14.50;;;12.82;;
2622;SDS011;1321;48.690;9.022;2023-04-06T05:47:18;14.05;;;12.65;;
2622;SDS011;1321;48.690;9.022;2023-04-06T05:49:46;14.73;;;13.35;;
2622;SDS011;1321;48.690;9.022;2023-04-06T05:52:14;16.10;;;14.88;;
2622;SDS011;1321;48.690;9.022;2023-04-06T05:54:42;14.50;;;13.23;;
2622;SDS011;1321;48.690;9.022;2023-04-06T05:57:11;16.30;;;14.85;;
2622;SDS011;1321;48.690;9.022;2023-04-06T05:59:40;13.77;;;12.50;;
2622;SDS011;1321;48.690;9.022;2023-04-06T06:02:09;12.20;;;11.10;;
2622;SDS011;1321;48.690;9.022;2023-04-06T06:04:37;14.70;;;13.25;;
2622;SDS011;1321;48.690;9.022;2023-04-06T06:07:06;15.40;;;12.07;;
2622;SDS011;1321;48.690;9.022;2023-04-06T06:09:34;16.25;;;13.55;;
2622;SDS011;1321;48.690;9.022;2023-04-06T06:12:02;14.80;;;12.93;;
2622;SDS011;1321;48.690;9.022;2023-04-06T06:14:31;13.57;;;12.45;;
2622;SDS011;1321;48.690;9.022;2023-04-06T06:17:00;13.50;;;12.30;;
2622;SDS011;1321;48.690;9.022;2023-04-06T06:19:29;16.60;;;13.25;;
2622;SDS011;1321;48.690;9.022;2023-04-06T06:21:57;16.48;;;14.77;;
2622;SDS011;1321;48.690;9.022;2023-04-06T06:24:27;12.67;;;11.50;;
2622;SDS011;1321;48.690;9.022;2023-04-06T06:26:57;38.10;;;25.37;;
2622;SDS011;1321;48.690;9.022;2023-04-06T06:29:25;19.90;;;16.47;;
2622;SDS011;1321;48.690;9.022;2023-04-06T06:31:54;24.27;;;18.97;;
2622;SDS011;1321;48.690;9.022;2023-04-06T06:34:23;22.70;;;17.87;;
2622;SDS011;1321;48.690;9.022;2023-04-06T06:36:51;12.60;;;11.30;;
2622;SDS011;1321;48.690;9.022;2023-04-06T06:39:21;25.07;;;14.60;;
2622;SDS011;1321;48.690;9.022;2023-04-06T06:41:49;18.83;;;15.10;;
2622;SDS011;1321;48.690;9.022;2023-04-06T06:44:17;18.60;;;16.87;;
2622;SDS011;1321;48.690;9.022;2023-04-06T06:46:46;20.80;;;17.40;;
2622;SDS011;1321;48.690;9.022;2023-04-06T06:49:14;13.10;;;11.90;;
2622;SDS011;1321;48.690;9.022;2023-04-06T06:51:44;17.33;;;14.20;;
2622;SDS011;1321;48.690;9.022;2023-04-06T06:54:13;12.73;;;11.60;;
2622;SDS011;1321;48.690;9.022;2023-04-06T06:56:41;13.70;;;12.37;;
2622;SDS011;1321;48.690;9.022;2023-04-06T06:59:10;16.03;;;12.40;;
2622;SDS011;1321;48.690;9.022;2023-04-06T07:01:38;13.20;;;11.80;;
2622;SDS011;1321;48.690;9.022;2023-04-06T07:04:06;12.73;;;11.60;;
2622;SDS011;1321;48.690;9.022;2023-04-06T07:06:35;17.30;;;15.60;;
2622;SDS011;1321;48.690;9.022;2023-04-06T07:09:05;13.97;;;12.57;;
2622;SDS011;1321;48.690;9.022;2023-04-06T07:11:33;11.30;;;10.30;;
2622;SDS011;1321;48.690;9.022;2023-04-06T07:14:01;10.50;;;9.70;;
2622;SDS011;1321;48.690;9.022;2023-04-06T07:16:30;11.17;;;9.97;;
2622;SDS011;1321;48.690;9.022;2023-04-06T07:18:58;10.60;;;9.70;;
2622;SDS011;1321;48.690;9.022;2023-04-06T07:21:26;10.90;;;9.80;;
2622;SDS011;1321;48.690;9.022;2023-04-06T07:23:54;11.17;;;10.27;;
2622;SDS011;1321;48.690;9.022;2023-04-06T07:26:24;10.90;;;10.03;;
2622;SDS011;1321;48.690;9.022;2023-04-06T07:28:53;10.93;;;9.93;;
2622;SDS011;1321;48.690;9.022;2023-04-06T07:31:21;12.13;;;11.03;;
2622;SDS011;1321;48.690;9.022;2023-04-06T07:33:49;11.03;;;10.13;;
2622;SDS011;1321;48.690;9.022;2023-04-06T07:36:18;11.90;;;9.50;;
2622;SDS011;1321;48.690;9.022;2023-04-06T07:38:46;11.57;;;10.37;;
2622;SDS011;1321;48.690;9.022;2023-04-06T07:41:15;10.90;;;10.00;;
2622;SDS011;1321;48.690;9.022;2023-04-06T07:43:45;11.47;;;10.57;;
2622;SDS011;1321;48.690;9.022;2023-04-06T07:46:13;10.63;;;9.70;;
2622;SDS011;1321;48.690;9.022;2023-04-06T07:48:42;10.33;;;9.53;;
2622;SDS011;1321;48.690;9.022;2023-04-06T07:51:10;12.03;;;10.80;;
2622;SDS011;1321;48.690;9.022;2023-04-06T07:53:41;11.87;;;10.90;;
2622;SDS011;1321;48.690;9.022;2023-04-06T07:56:09;11.97;;;10.80;;
2622;SDS011;1321;48.690;9.022;2023-04-06T07:58:38;11.17;;;10.13;;
2622;SDS011;1321;48.690;9.022;2023-04-06T08:01:07;10.77;;;9.67;;
2622;SDS011;1321;48.690;9.022;2023-04-06T08:03:36;11.70;;;10.13;;
2622;SDS011;1321;48.690;9.022;2023-04-06T08:06:05;11.00;;;9.90;;
2622;SDS011;1321;48.690;9.022;2023-04-06T08:08:34;11.20;;;10.10;;
2622;SDS011;1321;48.690;9.022;2023-04-06T08:11:02;10.77;;;9.87;;
2622;SDS011;1321;48.690;9.022;2023-04-06T08:13:30;11.27;;;10.30;;
2622;SDS011;1321;48.690;9.022;2023-04-06T08:15:58;10.47;;;9.40;;
2622;SDS011;1321;48.690;9.022;2023-04-06T08:18:28;11.43;;;10.33;;
2622;SDS011;1321;48.690;9.022;2023-04-06T08:20:57;9.87;;;9.07;;
2622;SDS011;1321;48.690;9.022;2023-04-06T08:23:25;10.27;;;9.47;;
2622;SDS011;1321;48.690;9.022;2023-04-06T08:25:53;10.50;;;9.70;;
2622;SDS011;1321;48.690;9.022;2023-04-06T08:28:22;9.97;;;9.07;;
2622;SDS011;1321;48.690;9.022;2023-04-06T08:30:51;9.73;;;9.13;;
2622;SDS011;1321;48.690;9.022;2023-04-06T08:33:19;10.50;;;9.63;;
2622;SDS011;1321;48.690;9.022;2023-04-06T08:35:48;10.53;;;9.60;;
2622;SDS011;1321;48.690;9.022;2023-04-06T08:38:17;10.90;;;9.97;;
2622;SDS011;1321;48.690;9.022;2023-04-06T08:40:46;10.87;;;10.00;;
2622;SDS011;1321;48.690;9.022;2023-04-06T08:43:16;9.87;;;9.13;;
2622;SDS011;1321;48.690;9.022;2023-04-06T08:45:46;9.63;;;8.83;;
2622;SDS011;1321;48.690;9.022;2023-04-06T08:48:15;10.07;;;9.17;;
2622;SDS011;1321;48.690;9.022;2023-04-06T08:50:45;10.43;;;9.63;;
2622;SDS011;1321;48.690;9.022;2023-04-06T08:53:15;8.70;;;7.90;;
2622;SDS011;1321;48.690;9.022;2023-04-06T08:55:44;10.03;;;9.20;;
2622;SDS011;1321;48.690;9.022;2023-04-06T08:58:12;9.27;;;8.37;;
2622;SDS011;1321;48.690;9.022;2023-04-06T09:00:56;10.23;;;9.10;;
2622;SDS011;1321;48.690;9.022;2023-04-06T09:03:26;10.10;;;8.53;;
2622;SDS011;1321;48.690;9.022;2023-04-06T09:05:56;9.60;;;8.73;;
2622;SDS011;1321;48.690;9.022;2023-04-06T09:08:27;10.50;;;8.77;;
2622;SDS011;1321;48.690;9.022;2023-04-06T09:10:55;9.30;;;8.50;;
2622;SDS011;1321;48.690;9.022;2023-04-06T09:13:24;8.30;;;7.60;;
2622;SDS011;1321;48.690;9.022;2023-04-06T09:15:59;8.33;;;6.70;;
2622;SDS011;1321;48.690;9.022;2023-04-06T09:18:28;8.43;;;7.63;;
2622;SDS011;1321;48.690;9.022;2023-04-06T09:20:58;8.20;;;7.50;;
2622;SDS011;1321;48.690;9.022;2023-04-06T09:23:29;8.90;;;8.07;;
2622;SDS011;1321;48.690;9.022;2023-04-06T09:26:07;8.30;;;7.70;;
2622;SDS011;1321;48.690;9.022;2023-04-06T09:28:43;7.00;;;6.50;;
2622;SDS011;1321;48.690;9.022;2023-04-06T09:31:13;7.37;;;6.80;;
2622;SDS011;1321;48.690;9.022;2023-04-06T09:33:42;12.67;;;7.60;;
2622;SDS011;1321;48.690;9.022;2023-04-06T09:36:12;7.37;;;6.60;;
2622;SDS011;1321;48.690;9.022;2023-04-06T09:38:53;7.00;;;6.60;;
2622;SDS011;1321;48.690;9.022;2023-04-06T09:41:23;7.53;;;7.03;;
2622;SDS011;1321;48.690;9.022;2023-04-06T09:43:52;6.93;;;6.47;;
2622;SDS011;1321;48.690;9.022;2023-04-06T09:46:31;7.70;;;7.00;;
2622;SDS011;1321;48.690;9.022;2023-04-06T09:49:20;7.67;;;7.00;;
2622;SDS011;1321;48.690;9.022;2023-04-06T09:51:52;7.43;;;6.93;;
2622;SDS011;1321;48.690;9.022;2023-04-06T09:54:24;8.03;;;7.43;;
2622;SDS011;1321;48.690;9.022;2023-04-06T09:56:56;6.97;;;6.33;;
2622;SDS011;1321;48.690;9.022;2023-04-06T09:59:38;6.40;;;6.10;;
2622;SDS011;1321;48.690;9.022;2023-04-06T10:02:14;7.27;;;6.70;;
2622;SDS011;1321;48.690;9.022;2023-04-06T10:04:48;7.97;;;7.20;;
2622;SDS011;1321;48.690;9.022;2023-04-06T10:07:24;7.87;;;7.27;;
2622;SDS011;1321;48.690;9.022;2023-04-06T10:09:55;7.87;;;7.17;;
2622;SDS011;1321;48.690;9.022;2023-04-06T10:12:24;7.20;;;6.70;;
2622;SDS011;1321;48.690;9.022;2023-04-06T10:14:52;6.57;;;6.00;;
2622;SDS011;1321;48.690;9.022;2023-04-06T10:17:21;8.03;;;7.30;;
2622;SDS011;1321;48.690;9.022;2023-04-06T10:19:52;7.17;;;6.77;;
2622;SDS011;1321;48.690;9.022;2023-04-06T10:22:24;6.80;;;6.40;;
2622;SDS011;1321;48.690;9.022;2023-04-06T10:25:05;8.17;;;7.57;;
2622;SDS011;1321;48.690;9.022;2023-04-06T10:27:35;7.40;;;6.80;;
2622;SDS011;1321;48.690;9.022;2023-04-06T10:30:04;7.90;;;7.10;;
2622;SDS011;1321;48.690;9.022;2023-04-06T10:32:34;7.80;;;7.10;;
2622;SDS011;1321;48.690;9.022;2023-04-06T10:35:07;8.23;;;7.70;;
2622;SDS011;1321;48.690;9.022;2023-04-06T10:37:46;6.97;;;6.47;;
2622;SDS011;1321;48.690;9.022;2023-04-06T10:40:20;7.87;;;7.17;;
2622;SDS011;1321;48.690;9.022;2023-04-06T10:42:51;8.00;;;7.50;;
2622;SDS011;1321;48.690;9.022;2023-04-06T10:45:21;7.13;;;6.67;;
2622;SDS011;1321;48.690;9.022;2023-04-06T10:47:50;7.17;;;6.67;;
2622;SDS011;1321;48.690;9.022;2023-04-06T10:50:21;7.57;;;6.97;;
2622;SDS011;1321;48.690;9.022;2023-04-06T10:52:58;7.33;;;6.70;;
2622;SDS011;1321;48.690;9.022;2023-04-06T10:55:28;7.10;;;6.50;;
2622;SDS011;1321;48.690;9.022;2023-04-06T10:57:58;7.03;;;6.53;;
2622;SDS011;1321;48.690;9.022;2023-04-06T11:00:26;6.37;;;5.97;;
2622;SDS011;1321;48.690;9.022;2023-04-06T11:03:12;6.97;;;6.47;;
2622;SDS011;1321;48.690;9.022;2023-04-06T11:05:43;7.00;;;6.40;;
2622;SDS011;1321;48.690;9.022;2023-04-06T11:08:22;9.53;;;8.70;;
2622;SDS011;1321;48.690;9.022;2023-04-06T11:11:03;8.30;;;7.60;;
2622;SDS011;1321;48.690;9.022;2023-04-06T11:13:36;10.70;;;9.70;;
2622;SDS011;1321;48.690;9.022;2023-04-06T11:16:14;7.00;;;6.30;;
2622;SDS011;1321;48.690;9.022;2023-04-06T11:18:47;6.90;;;6.40;;
2622;SDS011;1321;48.690;9.022;2023-04-06T11:21:19;7.27;;;6.67;;
2622;SDS011;1321;48.690;9.022;2023-04-06T11:24:03;6.50;;;6.00;;
2622;SDS011;1321;48.690;9.022;2023-04-06T11:26:37;6.33;;;5.93;;
2622;SDS011;1321;48.690;9.022;2023-04-06T11:29:06;6.77;;;6.27;;
2622;SDS011;1321;48.690;9.022;2023-04-06T11:31:39;7.93;;;7.30;;
2622;SDS011;1321;48.690;9.022;2023-04-06T11:34:11;6.47;;;6.07;;
2622;SDS011;1321;48.690;9.022;2023-04-06T11:36:41;7.00;;;6.40;;
2622;SDS011;1321;48.690;9.022;2023-04-06T11:39:10;6.60;;;6.10;;
2622;SDS011;1321;48.690;9.022;2023-04-06T11:41:40;7.70;;;7.20;;
2622;SDS011;1321;48.690;9.022;2023-04-06T11:44:08;7.40;;;6.90;;
2622;SDS011;1321;48.690;9.022;2023-04-06T11:46:36;6.97;;;6.53;;
2622;SDS011;1321;48.690;9.022;2023-04-06T11:49:05;7.23;;;6.73;;
2622;SDS011;1321;48.690;9.022;2023-04-06T11:51:35;6.90;;;6.40;;
2622;SDS011;1321;48.690;9.022;2023-04-06T11:54:04;7.23;;;6.73;;
2622;SDS011;1321;48.690;9.022;2023-04-06T11:56:32;6.90;;;6.40;;
2622;SDS011;1321;48.690;9.022;2023-04-06T11:59:01;6.20;;;5.80;;
2622;SDS011;1321;48.690;9.022;2023-04-06T12:01:30;6.70;;;6.20;;
2622;SDS011;1321;48.690;9.022;2023-04-06T12:04:04;6.43;;;5.97;;
2622;SDS011;1321;48.690;9.022;2023-04-06T12:06:32;6.57;;;6.17;;
2622;SDS011;1321;48.690;9.022;2023-04-06T12:09:01;7.07;;;6.57;;
2622;SDS011;1321;48.690;9.022;2023-04-06T12:11:29;6.83;;;6.20;;
2622;SDS011;1321;48.690;9.022;2023-04-06T12:13:58;7.40;;;6.77;;
2622;SDS011;1321;48.690;9.022;2023-04-06T12:16:29;8.27;;;7.50;;
2622;SDS011;1321;48.690;9.022;2023-04-06T12:18:57;7.30;;;6.63;;
2622;SDS011;1321;48.690;9.022;2023-04-06T12:21:26;8.13;;;7.53;;
2622;SDS011;1321;48.690;9.022;2023-04-06T12:23:54;7.90;;;7.30;;
2622;SDS011;1321;48.690;9.022;2023-04-06T12:26:23;8.00;;;7.20;;
2622;SDS011;1321;48.690;9.022;2023-04-06T12:28:51;7.67;;;6.97;;
2622;SDS011;1321;48.690;9.022;2023-04-06T12:31:20;7.50;;;6.90;;
2622;SDS011;1321;48.690;9.022;2023-04-06T12:33:51;7.37;;;6.70;;
2622;SDS011;1321;48.690;9.022;2023-04-06T12:36:19;8.20;;;7.60;;
2622;SDS011;1321;48.690;9.022;2023-04-06T12:38:48;8.33;;;7.57;;
2622;SDS011;1321;48.690;9.022;2023-04-06T12:41:17;8.13;;;7.53;;
2622;SDS011;1321;48.690;9.022;2023-04-06T12:43:46;10.40;;;7.03;;
2622;SDS011;1321;48.690;9.022;2023-04-06T12:46:16;10.20;;;8.53;;
2622;SDS011;1321;48.690;9.022;2023-04-06T12:48:44;10.70;;;8.20;;
2622;SDS011;1321;48.690;9.022;2023-04-06T12:51:14;14.97;;;7.60;;
2622;SDS011;1321;48.690;9.022;2023-04-06T12:53:43;8.17;;;7.57;;
2622;SDS011;1321;48.690;9.022;2023-04-06T12:56:12;8.57;;;7.83;;
2622;SDS011;1321;48.690;9.022;2023-04-06T12:58:42;7.53;;;6.70;;
2622;SDS011;1321;48.690;9.022;2023-04-06T13:01:10;7.60;;;7.10;;
2622;SDS011;1321;48.690;9.022;2023-04-06T13:03:39;7.13;;;6.17;;
2622;SDS011;1321;48.690;9.022;2023-04-06T13:06:08;9.03;;;7.93;;
2622;SDS011;1321;48.690;9.022;2023-04-06T13:08:38;7.10;;;6.50;;
2622;SDS011;1321;48.690;9.022;2023-04-06T13:11:07;7.67;;;6.97;;
2622;SDS011;1321;48.690;9.022;2023-04-06T13:13:36;7.33;;;6.60;;
2622;SDS011;1321;48.690;9.022;2023-04-06T13:16:05;7.47;;;6.90;;
2622;SDS011;1321;48.690;9.022;2023-04-06T13:18:35;7.77;;;7.07;;
2622;SDS011;1321;48.690;9.022;2023-04-06T13:21:05;7.80;;;7.20;;
2622;SDS011;1321;48.690;9.022;2023-04-06T13:23:34;6.80;;;6.30;;
2622;SDS011;1321;48.690;9.022;2023-04-06T13:26:04;7.20;;;6.60;;
2622;SDS011;1321;48.690;9.022;2023-04-06T13:28:34;6.80;;;6.40;;
2622;SDS011;1321;48.690;9.022;2023-04-06T13:31:04;6.93;;;6.43;;
2622;SDS011;1321;48.690;9.022;2023-04-06T13:33:33;7.20;;;6.60;;
2622;SDS011;1321;48.690;9.022;2023-04-06T13:36:01;6.17;;;5.70;;
2622;SDS011;1321;48.690;9.022;2023-04-06T13:38:30;5.10;;;4.90;;
2622;SDS011;1321;48.690;9.022;2023-04-06T13:40:59;7.20;;;6.70;;
2622;SDS011;1321;48.690;9.022;2023-04-06T13:43:29;6.83;;;6.37;;
2622;SDS011;1321;48.690;9.022;2023-04-06T13:45:57;8.70;;;6.30;;
2622;SDS011;1321;48.690;9.022;2023-04-06T13:48:27;7.07;;;6.47;;
2622;SDS011;1321;48.690;9.022;2023-04-06T13:50:55;5.63;;;5.33;;
2622;SDS011;1321;48.690;9.022;2023-04-06T13:53:24;6.53;;;6.07;;
2622;SDS011;1321;48.690;9.022;2023-04-06T13:55:53;6.33;;;5.83;;
2622;SDS011;1321;48.690;9.022;2023-04-06T13:58:22;7.13;;;6.43;;
2622;SDS011;1321;48.690;9.022;2023-04-06T14:00:51;5.93;;;5.53;;
2622;SDS011;1321;48.690;9.022;2023-04-06T14:03:20;5.90;;;5.50;;
2622;SDS011;1321;48.690;9.022;2023-04-06T14:05:49;5.27;;;4.97;;
2622;SDS011;1321;48.690;9.022;2023-04-06T14:08:17;6.87;;;6.27;;
2622;SDS011;1321;48.690;9.022;2023-04-06T14:10:45;6.47;;;5.90;;
2622;SDS011;1321;48.690;9.022;2023-04-06T14:13:14;6.70;;;6.20;;
2622;SDS011;1321;48.690;9.022;2023-04-06T14:15:43;5.87;;;5.47;;
2622;SDS011;1321;48.690;9.022;2023-04-06T14:18:13;6.47;;;5.97;;
2622;SDS011;1321;48.690;9.022;2023-04-06T14:20:41;7.03;;;6.43;;
2622;SDS011;1321;48.690;9.022;2023-04-06T14:23:10;6.90;;;6.40;;
2622;SDS011;1321;48.690;9.022;2023-04-06T14:25:38;6.17;;;5.77;;
2622;SDS011;1321;48.690;9.022;2023-04-06T14:28:06;7.33;;;6.07;;
2622;SDS011;1321;48.690;9.022;2023-04-06T14:30:34;6.40;;;5.93;;
2622;SDS011;1321;48.690;9.022;2023-04-06T14:33:03;6.37;;;5.90;;
2622;SDS011;1321;48.690;9.022;2023-04-06T14:35:33;6.10;;;5.60;;
2622;SDS011;1321;48.690;9.022;2023-04-06T14:38:01;6.13;;;5.73;;
2622;SDS011;1321;48.690;9.022;2023-04-06T14:40:29;6.57;;;6.00;;
2622;SDS011;1321;48.690;9.022;2023-04-06T14:42:57;6.13;;;5.73;;
2622;SDS011;1321;48.690;9.022;2023-04-06T14:45:25;6.70;;;6.27;;
2622;SDS011;1321;48.690;9.022;2023-04-06T14:47:53;7.13;;;6.63;;
2622;SDS011;1321;48.690;9.022;2023-04-06T14:50:21;7.30;;;6.60;;
2622;SDS011;1321;48.690;9.022;2023-04-06T14:52:51;6.93;;;6.30;;
2622;SDS011;1321;48.690;9.022;2023-04-06T14:55:19;6.53;;;6.03;;
2622;SDS011;1321;48.690;9.022;2023-04-06T14:57:47;6.70;;;6.30;;
2622;SDS011;1321;48.690;9.022;2023-04-06T15:00:15;6.17;;;5.67;;
2622;SDS011;1321;48.690;9.022;2023-04-06T15:02:44;6.50;;;6.00;;
2622;SDS011;1321;48.690;9.022;2023-04-06T15:05:13;6.83;;;6.33;;
2622;SDS011;1321;48.690;9.022;2023-04-06T15:07:41;6.57;;;6.07;;
2622;SDS011;1321;48.690;9.022;2023-04-06T15:10:10;7.07;;;6.57;;
2622;SDS011;1321;48.690;9.022;2023-04-06T15:12:38;6.53;;;6.03;;
2622;SDS011;1321;48.690;9.022;2023-04-06T15:15:07;7.50;;;6.77;;